createdAt,value
2022-12-25T00:00:20.971Z,11.55
2022-12-25T00:01:32.816Z,12.77
2022-12-25T00:02:44.418Z,21.15
2022-12-25T00:03:56.617Z,13.05
2022-12-25T00:05:08.530Z,13.60
2022-12-25T00:06:20.065Z,15.35
2022-12-25T00:07:31.922Z,16.08
2022-12-25T00:08:43.326Z,13.93
2022-12-25T00:09:54.758Z,13.82
2022-12-25T00:11:07.916Z,13.82
2022-12-25T00:12:21.013Z,13.70
2022-12-25T00:13:32.652Z,15.88
2022-12-25T00:14:44.119Z,14.65
2022-12-25T00:15:55.667Z,14.48
2022-12-25T00:17:07.168Z,13.57
2022-12-25T00:18:18.664Z,14.40
2022-12-25T00:19:31.370Z,11.93
2022-12-25T00:20:42.854Z,11.90
2022-12-25T00:21:54.309Z,13.30
2022-12-25T00:23:05.736Z,11.73
2022-12-25T00:24:17.135Z,11.15
2022-12-25T00:25:28.606Z,11.70
2022-12-25T00:26:40.197Z,10.18
2022-12-25T00:27:51.714Z,9.57
2022-12-25T00:29:03.242Z,9.65
2022-12-25T00:30:14.767Z,9.15
2022-12-25T00:31:26.867Z,8.82
2022-12-25T00:32:38.384Z,10.43
2022-12-25T00:33:50.507Z,9.35
2022-12-25T00:35:02.128Z,9.50
2022-12-25T00:36:15.622Z,13.75
2022-12-25T00:37:27.066Z,10.65
2022-12-25T00:38:39.441Z,11.68
2022-12-25T00:39:50.976Z,14.18
2022-12-25T00:41:06.652Z,11.65
2022-12-25T00:42:20.804Z,12.65
2022-12-25T00:43:32.289Z,13.88
2022-12-25T00:44:44.018Z,13.15
2022-12-25T00:45:59.398Z,14.23
2022-12-25T00:47:11.045Z,15.00
2022-12-25T00:48:22.619Z,14.98
2022-12-25T00:49:34.087Z,15.23
2022-12-25T00:50:45.531Z,11.93
2022-12-25T00:51:57.003Z,13.90
2022-12-25T00:53:08.455Z,10.88
2022-12-25T00:54:20.211Z,10.30
2022-12-25T00:55:31.698Z,9.63
2022-12-25T00:56:43.191Z,9.45
2022-12-25T00:57:54.715Z,8.40
2022-12-25T00:59:06.203Z,6.78
2022-12-25T01:00:17.757Z,8.13
2022-12-25T01:01:29.394Z,8.27
2022-12-25T01:02:41.073Z,7.32
2022-12-25T01:03:52.602Z,7.30
2022-12-25T01:05:04.886Z,8.98
2022-12-25T01:06:16.334Z,8.45
2022-12-25T01:07:27.952Z,8.07
2022-12-25T01:09:00.648Z,7.97
2022-12-25T01:10:24.343Z,7.40
2022-12-25T01:11:35.894Z,8.60
2022-12-25T01:12:47.389Z,8.23
2022-12-25T01:13:59.011Z,8.05
2022-12-25T01:15:11.974Z,11.00
2022-12-25T01:16:23.463Z,9.52
2022-12-25T01:17:35.032Z,11.15
2022-12-25T01:18:46.752Z,9.77
2022-12-25T01:19:58.195Z,9.38
2022-12-25T01:21:11.892Z,8.20
2022-12-25T01:22:23.320Z,7.78
2022-12-25T01:23:34.978Z,8.80
2022-12-25T01:24:46.464Z,8.38
2022-12-25T01:26:02.923Z,8.27
2022-12-25T01:27:14.379Z,8.07
2022-12-25T01:28:25.840Z,7.70
2022-12-25T01:29:37.491Z,8.32
2022-12-25T01:30:49.449Z,10.18
2022-12-25T01:32:01.026Z,9.05
2022-12-25T01:33:12.472Z,8.70
2022-12-25T01:34:23.937Z,9.50
2022-12-25T01:35:38.795Z,10.68
2022-12-25T01:36:50.232Z,9.65
2022-12-25T01:38:01.661Z,9.55
2022-12-25T01:39:13.108Z,17.40
2022-12-25T01:40:24.634Z,13.93
2022-12-25T01:41:36.111Z,15.43
2022-12-25T01:42:47.567Z,13.90
2022-12-25T01:44:28.135Z,15.80
2022-12-25T01:45:44.583Z,14.73
2022-12-25T01:46:56.083Z,12.43
2022-12-25T01:48:11.163Z,13.05
2022-12-25T01:49:24.823Z,13.32
2022-12-25T01:50:38.476Z,13.70
2022-12-25T01:51:52.692Z,12.77
2022-12-25T01:53:04.416Z,13.93
2022-12-25T01:54:17.929Z,14.95
2022-12-25T01:55:29.508Z,14.55
2022-12-25T01:56:42.208Z,13.13
2022-12-25T01:57:53.786Z,16.48
2022-12-25T01:59:06.422Z,15.32
2022-12-25T02:00:17.944Z,15.68
2022-12-25T02:01:29.684Z,11.70
2022-12-25T02:02:41.505Z,16.67
2022-12-25T02:03:55.700Z,11.68
2022-12-25T02:05:10.048Z,12.07
2022-12-25T02:06:21.754Z,14.18
2022-12-25T02:07:34.823Z,12.93
2022-12-25T02:08:46.272Z,10.68
2022-12-25T02:09:57.763Z,12.50
2022-12-25T02:11:29.265Z,12.02
2022-12-25T02:12:41.261Z,12.13
2022-12-25T02:13:52.696Z,12.13
2022-12-25T02:15:24.378Z,10.77
2022-12-25T02:16:57.625Z,10.00
2022-12-25T02:18:20.407Z,9.40
2022-12-25T02:19:32.509Z,10.13
2022-12-25T02:20:43.933Z,10.38
2022-12-25T02:22:02.058Z,8.35
2022-12-25T02:23:13.528Z,9.80
2022-12-25T02:24:37.349Z,12.43
2022-12-25T02:26:07.348Z,9.50
2022-12-25T02:27:42.171Z,8.98
2022-12-25T02:28:53.633Z,8.68
2022-12-25T02:30:10.021Z,9.75
2022-12-25T02:31:30.357Z,8.40
2022-12-25T02:32:47.642Z,7.75
2022-12-25T02:34:05.251Z,8.93
2022-12-25T02:35:25.606Z,9.73
2022-12-25T02:36:46.300Z,8.80
2022-12-25T02:38:04.841Z,8.18
2022-12-25T02:39:52.101Z,7.75
2022-12-25T02:41:09.358Z,8.25
2022-12-25T02:42:59.553Z,11.30
2022-12-25T02:44:33.461Z,11.43
2022-12-25T02:46:17.476Z,8.45
2022-12-25T02:47:47.812Z,7.57
2022-12-25T02:49:19.466Z,7.35
2022-12-25T02:50:49.738Z,8.65
2022-12-25T02:52:22.341Z,8.20
2022-12-25T02:53:53.257Z,7.30
2022-12-25T02:55:31.739Z,7.93
2022-12-25T02:57:02.892Z,7.82
2022-12-25T02:58:34.967Z,9.52
2022-12-25T03:00:07.307Z,11.38
2022-12-25T03:01:38.787Z,9.55
2022-12-25T03:03:09.524Z,9.15
2022-12-25T03:04:54.079Z,13.32
2022-12-25T03:06:24.726Z,15.10
2022-12-25T03:07:38.797Z,14.73
2022-12-25T03:08:52.205Z,15.95
2022-12-25T03:10:25.310Z,15.40
2022-12-25T03:11:36.823Z,16.75
2022-12-25T03:13:02.107Z,15.13
2022-12-25T03:14:32.219Z,15.65
2022-12-25T03:16:02.685Z,15.38
2022-12-25T03:17:14.338Z,19.80
2022-12-25T03:18:27.159Z,18.67
2022-12-25T03:19:57.442Z,21.58
2022-12-25T03:21:27.353Z,18.60
2022-12-25T03:22:57.866Z,18.85
2022-12-25T03:24:27.938Z,18.38
2022-12-25T03:25:57.898Z,16.88
2022-12-25T03:27:09.333Z,19.40
2022-12-25T03:28:20.749Z,20.52
2022-12-25T03:29:51.917Z,24.02
2022-12-25T03:31:17.222Z,19.85
2022-12-25T03:32:41.608Z,19.90
2022-12-25T03:34:18.010Z,21.58
2022-12-25T03:35:44.262Z,21.02
2022-12-25T03:37:37.017Z,24.00
2022-12-25T03:38:51.387Z,20.50
2022-12-25T03:40:35.737Z,21.33
2022-12-25T03:42:08.822Z,21.27
2022-12-25T03:43:49.747Z,18.63
2022-12-25T03:45:38.803Z,20.13
2022-12-25T03:47:26.419Z,22.00
2022-12-25T03:48:59.054Z,19.50
2022-12-25T03:50:45.995Z,20.13
2022-12-25T03:52:17.506Z,20.40
2022-12-25T03:53:59.051Z,20.48
2022-12-25T03:55:30.885Z,21.38
2022-12-25T03:57:02.171Z,21.30
2022-12-25T03:58:36.287Z,21.98
2022-12-25T04:00:06.228Z,20.23
2022-12-25T04:01:36.541Z,24.17
2022-12-25T04:03:06.747Z,24.90
2022-12-25T04:04:36.732Z,22.17
2022-12-25T04:06:06.530Z,20.55
2022-12-25T04:07:36.495Z,22.75
2022-12-25T04:09:06.493Z,19.63
2022-12-25T04:10:36.431Z,20.52
2022-12-25T04:12:06.513Z,20.42
2022-12-25T04:13:36.326Z,18.00
2022-12-25T04:15:06.265Z,18.83
2022-12-25T04:16:36.233Z,18.70
2022-12-25T04:18:06.388Z,19.20
2022-12-25T04:19:36.267Z,19.27
2022-12-25T04:21:06.048Z,24.02
2022-12-25T04:22:35.795Z,25.67
2022-12-25T04:24:05.782Z,24.45
2022-12-25T04:25:35.995Z,21.17
2022-12-25T04:27:05.830Z,18.92
2022-12-25T04:28:35.654Z,18.58
2022-12-25T04:30:05.546Z,16.67
2022-12-25T04:31:35.538Z,14.15
2022-12-25T04:33:07.277Z,14.52
2022-12-25T04:34:37.208Z,14.48
2022-12-25T04:36:07.154Z,13.77
2022-12-25T04:37:18.624Z,13.27
2022-12-25T04:38:30.087Z,14.30
2022-12-25T04:39:41.579Z,12.88
2022-12-25T04:40:53.041Z,19.30
2022-12-25T04:42:04.524Z,16.08
2022-12-25T04:43:15.987Z,14.85
2022-12-25T04:44:27.474Z,13.52
2022-12-25T04:45:38.917Z,13.70
2022-12-25T04:46:50.380Z,12.38
2022-12-25T04:48:02.005Z,12.80
2022-12-25T04:49:13.515Z,9.45
2022-12-25T04:50:24.994Z,11.82
2022-12-25T04:51:36.812Z,9.35
2022-12-25T04:52:48.278Z,9.88
2022-12-25T04:53:59.713Z,10.07
2022-12-25T04:55:11.664Z,8.40
2022-12-25T04:56:23.189Z,9.45
2022-12-25T04:57:34.937Z,7.32
2022-12-25T04:58:46.787Z,8.48
2022-12-25T04:59:58.253Z,7.78
2022-12-25T05:01:09.760Z,8.43
2022-12-25T05:02:21.314Z,8.13
2022-12-25T05:03:33.363Z,8.65
2022-12-25T05:04:44.833Z,8.32
2022-12-25T05:05:56.391Z,11.23
2022-12-25T05:07:07.807Z,10.63
2022-12-25T05:08:19.278Z,9.07
2022-12-25T05:09:30.732Z,11.10
2022-12-25T05:10:42.232Z,10.13
2022-12-25T05:11:53.633Z,14.25
2022-12-25T05:13:05.144Z,13.07
2022-12-25T05:14:16.601Z,18.02
2022-12-25T05:15:28.684Z,15.85
2022-12-25T05:16:40.150Z,17.80
2022-12-25T05:17:51.665Z,16.60
2022-12-25T05:19:03.099Z,16.05
2022-12-25T05:20:14.753Z,23.05
2022-12-25T05:21:26.235Z,20.80
2022-12-25T05:22:37.632Z,16.80
2022-12-25T05:23:50.252Z,19.48
2022-12-25T05:25:01.709Z,17.40
2022-12-25T05:26:13.149Z,17.00
2022-12-25T05:27:24.765Z,17.02
2022-12-25T05:28:36.343Z,15.70
2022-12-25T05:29:47.834Z,16.88
2022-12-25T05:30:59.426Z,17.77
2022-12-25T05:32:10.945Z,17.80
2022-12-25T05:33:22.419Z,17.55
2022-12-25T05:34:33.827Z,17.58
2022-12-25T05:35:45.278Z,20.10
2022-12-25T05:36:57.151Z,17.08
2022-12-25T05:38:08.768Z,17.48
2022-12-25T05:39:20.253Z,23.45
2022-12-25T05:40:31.907Z,22.83
2022-12-25T05:41:43.335Z,24.80
2022-12-25T05:42:54.797Z,18.77
2022-12-25T05:44:06.280Z,18.80
2022-12-25T05:45:17.739Z,19.92
2022-12-25T05:46:29.234Z,19.92
2022-12-25T05:47:40.781Z,18.45
2022-12-25T05:48:52.198Z,21.13
2022-12-25T05:50:04.054Z,16.88
2022-12-25T05:51:15.824Z,16.52
2022-12-25T05:52:30.782Z,16.88
2022-12-25T05:53:42.842Z,27.25
2022-12-25T05:54:54.267Z,36.53
2022-12-25T05:56:06.973Z,29.67
2022-12-25T05:57:18.473Z,22.67
2022-12-25T05:58:30.345Z,18.13
2022-12-25T05:59:41.772Z,26.42
2022-12-25T06:00:53.243Z,30.45
2022-12-25T06:02:04.894Z,39.30
2022-12-25T06:03:16.610Z,29.02
2022-12-25T06:04:28.125Z,20.92
2022-12-25T06:05:39.927Z,18.88
2022-12-25T06:06:51.412Z,23.02
2022-12-25T06:08:02.906Z,18.52
2022-12-25T06:09:14.531Z,22.17
2022-12-25T06:10:26.030Z,18.10
2022-12-25T06:11:37.492Z,16.33
2022-12-25T06:12:49.227Z,15.13
2022-12-25T06:14:01.241Z,17.95
2022-12-25T06:15:12.688Z,18.70
2022-12-25T06:16:24.190Z,18.92
2022-12-25T06:17:35.633Z,34.40
2022-12-25T06:18:48.707Z,30.33
2022-12-25T06:20:00.209Z,22.30
2022-12-25T06:21:13.180Z,19.15
2022-12-25T06:22:28.339Z,14.77
2022-12-25T06:23:40.353Z,15.68
2022-12-25T06:24:52.006Z,17.52
2022-12-25T06:26:10.736Z,38.28
2022-12-25T06:27:22.157Z,31.67
2022-12-25T06:28:33.614Z,22.00
2022-12-25T06:29:45.081Z,22.95
2022-12-25T06:30:56.657Z,17.80
2022-12-25T06:32:08.161Z,20.15
2022-12-25T06:33:19.704Z,22.52
2022-12-25T06:34:31.249Z,26.58
2022-12-25T06:35:42.870Z,28.83
2022-12-25T06:36:54.443Z,34.22
2022-12-25T06:38:06.081Z,31.35
2022-12-25T06:39:17.805Z,25.50
2022-12-25T06:40:29.265Z,24.80
2022-12-25T06:41:40.749Z,24.73
2022-12-25T06:42:52.272Z,24.92
2022-12-25T06:44:03.744Z,22.48
2022-12-25T06:45:15.233Z,20.52
2022-12-25T06:46:27.782Z,17.98
2022-12-25T06:47:39.427Z,19.30
2022-12-25T06:48:51.793Z,20.70
2022-12-25T06:50:03.468Z,43.15
2022-12-25T06:51:24.920Z,45.05
2022-12-25T06:52:36.361Z,33.30
2022-12-25T06:53:48.233Z,41.63
2022-12-25T06:55:00.077Z,52.70
2022-12-25T06:56:16.468Z,43.38
2022-12-25T06:57:28.074Z,37.15
2022-12-25T06:58:39.522Z,20.75
2022-12-25T06:59:55.160Z,20.10
2022-12-25T07:01:15.238Z,18.13
2022-12-25T07:02:27.447Z,17.17
2022-12-25T07:03:38.996Z,15.88
2022-12-25T07:04:51.152Z,17.08
2022-12-25T07:06:02.652Z,16.75
2022-12-25T07:07:14.298Z,17.40
2022-12-25T07:08:25.817Z,15.38
2022-12-25T07:09:39.092Z,16.75
2022-12-25T07:10:50.987Z,18.48
2022-12-25T07:12:06.591Z,20.42
2022-12-25T07:13:18.148Z,21.05
2022-12-25T07:14:29.793Z,18.30
2022-12-25T07:15:41.230Z,16.77
2022-12-25T07:16:52.780Z,17.52
2022-12-25T07:18:04.379Z,18.80
2022-12-25T07:19:16.156Z,17.95
2022-12-25T07:20:27.734Z,20.35
2022-12-25T07:21:39.236Z,26.92
2022-12-25T07:22:50.753Z,25.38
2022-12-25T07:24:02.304Z,30.67
2022-12-25T07:25:13.874Z,30.15
2022-12-25T07:26:25.336Z,35.13
2022-12-25T07:27:36.799Z,33.38
2022-12-25T07:28:48.253Z,33.33
2022-12-25T07:29:59.911Z,28.85
2022-12-25T07:31:12.823Z,36.45
2022-12-25T07:32:24.626Z,26.65
2022-12-25T07:33:36.353Z,21.58
2022-12-25T07:34:48.196Z,26.63
2022-12-25T07:35:59.859Z,40.53
2022-12-25T07:37:11.925Z,43.20
2022-12-25T07:38:23.488Z,42.13
2022-12-25T07:39:35.540Z,41.63
2022-12-25T07:40:47.663Z,33.70
2022-12-25T07:41:59.347Z,31.67
2022-12-25T07:43:11.261Z,50.55
2022-12-25T07:44:22.907Z,31.95
2022-12-25T07:45:34.507Z,27.70
2022-12-25T07:46:46.315Z,36.40
2022-12-25T07:48:02.740Z,29.88
2022-12-25T07:49:16.601Z,29.20
2022-12-25T07:50:28.070Z,23.98
2022-12-25T07:51:39.640Z,25.80
2022-12-25T07:52:51.192Z,19.85
2022-12-25T07:54:02.684Z,20.00
2022-12-25T07:55:14.368Z,19.73
2022-12-25T07:56:25.964Z,19.75
2022-12-25T07:57:37.569Z,20.45
2022-12-25T07:58:49.197Z,23.98
2022-12-25T08:00:00.640Z,21.17
2022-12-25T08:01:18.256Z,17.98
2022-12-25T08:02:30.239Z,20.98
2022-12-25T08:03:42.170Z,18.75
2022-12-25T08:04:56.686Z,19.23
2022-12-25T08:06:09.151Z,23.63
2022-12-25T08:07:20.648Z,22.60
2022-12-25T08:08:32.248Z,23.67
2022-12-25T08:09:43.684Z,23.30
2022-12-25T08:10:55.216Z,23.33
2022-12-25T08:12:06.890Z,23.08
2022-12-25T08:13:18.498Z,26.27
2022-12-25T08:14:29.987Z,28.77
2022-12-25T08:15:41.776Z,26.20
2022-12-25T08:16:53.274Z,30.30
2022-12-25T08:18:04.838Z,32.22
2022-12-25T08:19:16.365Z,35.03
2022-12-25T08:20:27.814Z,31.73
2022-12-25T08:21:39.349Z,29.00
2022-12-25T08:22:50.784Z,30.92
2022-12-25T08:24:03.230Z,30.33
2022-12-25T08:25:15.973Z,29.48
2022-12-25T08:26:27.448Z,31.27
2022-12-25T08:27:38.955Z,30.92
2022-12-25T08:28:50.467Z,30.60
2022-12-25T08:30:01.983Z,31.65
2022-12-25T08:31:13.623Z,29.10
2022-12-25T08:32:25.191Z,30.30
2022-12-25T08:33:37.138Z,28.63
2022-12-25T08:34:49.349Z,32.20
2022-12-25T08:36:04.935Z,32.10
2022-12-25T08:37:16.563Z,30.67
2022-12-25T08:38:28.170Z,32.85
2022-12-25T08:39:39.671Z,31.50
2022-12-25T08:40:51.348Z,33.58
2022-12-25T08:42:02.823Z,31.52
2022-12-25T08:43:14.250Z,34.90
2022-12-25T08:44:26.006Z,33.40
2022-12-25T08:45:37.463Z,36.42
2022-12-25T08:46:48.995Z,43.65
2022-12-25T08:48:01.437Z,41.58
2022-12-25T08:49:12.889Z,41.25
2022-12-25T08:50:24.787Z,38.08
2022-12-25T08:51:37.383Z,36.58
2022-12-25T08:52:48.866Z,38.38
2022-12-25T08:54:01.010Z,38.45
2022-12-25T08:55:12.727Z,39.38
2022-12-25T08:56:24.266Z,41.22
2022-12-25T08:57:35.738Z,43.63
2022-12-25T08:58:47.221Z,34.95
2022-12-25T08:59:58.689Z,38.60
2022-12-25T09:01:10.294Z,32.97
2022-12-25T09:02:21.901Z,28.83
2022-12-25T09:03:34.391Z,24.50
2022-12-25T09:04:46.361Z,23.65
2022-12-25T09:06:02.369Z,27.70
2022-12-25T09:07:13.872Z,26.27
2022-12-25T09:08:26.261Z,27.55
2022-12-25T09:09:37.715Z,28.67
2022-12-25T09:10:49.619Z,30.15
2022-12-25T09:12:02.312Z,32.22
2022-12-25T09:13:14.395Z,32.53
2022-12-25T09:14:25.874Z,29.00
2022-12-25T09:15:38.333Z,28.95
2022-12-25T09:16:50.227Z,28.60
2022-12-25T09:18:01.669Z,31.23
2022-12-25T09:19:13.170Z,35.25
2022-12-25T09:20:24.693Z,36.67
2022-12-25T09:21:36.927Z,31.27
2022-12-25T09:22:48.596Z,32.30
2022-12-25T09:24:00.102Z,33.25
2022-12-25T09:25:11.706Z,31.50
2022-12-25T09:26:23.175Z,28.95
2022-12-25T09:27:34.606Z,28.38
2022-12-25T09:28:51.367Z,28.70
2022-12-25T09:30:04.419Z,28.90
2022-12-25T09:31:16.341Z,28.40
2022-12-25T09:32:27.920Z,28.75
2022-12-25T09:33:39.468Z,29.33
2022-12-25T09:34:50.982Z,30.40
2022-12-25T09:36:04.424Z,26.40
2022-12-25T09:37:15.894Z,24.90
2022-12-25T09:38:27.617Z,26.48
2022-12-25T09:39:45.871Z,27.73
2022-12-25T09:41:16.128Z,25.45
2022-12-25T09:42:31.330Z,26.80
2022-12-25T09:43:46.433Z,28.02
2022-12-25T09:45:00.822Z,26.40
2022-12-25T09:46:15.600Z,27.38
2022-12-25T09:47:31.789Z,26.65
2022-12-25T09:48:47.533Z,24.60
2022-12-25T09:50:08.499Z,29.92
2022-12-25T09:51:20.202Z,28.88
2022-12-25T09:52:37.727Z,29.08
2022-12-25T09:53:53.654Z,31.90
2022-12-25T09:55:05.181Z,33.10
2022-12-25T09:56:25.664Z,32.15
2022-12-25T09:57:37.183Z,31.90
2022-12-25T09:58:48.609Z,34.42
2022-12-25T10:00:00.087Z,30.80
2022-12-25T10:01:20.987Z,29.02
2022-12-25T10:03:05.018Z,28.73
2022-12-25T10:04:16.556Z,27.42
2022-12-25T10:05:33.986Z,32.80
2022-12-25T10:06:45.451Z,28.60
2022-12-25T10:08:14.898Z,30.45
2022-12-25T10:09:29.079Z,26.05
2022-12-25T10:10:40.485Z,26.85
2022-12-25T10:11:51.953Z,25.50
2022-12-25T10:13:09.171Z,22.92
2022-12-25T10:14:20.628Z,20.55
2022-12-25T10:15:50.771Z,18.63
2022-12-25T10:17:25.355Z,17.63
2022-12-25T10:18:55.500Z,17.85
2022-12-25T10:20:19.798Z,20.60
2022-12-25T10:21:32.009Z,19.15
2022-12-25T10:22:52.763Z,19.92
2022-12-25T10:24:16.552Z,21.13
2022-12-25T10:25:32.829Z,20.45
2022-12-25T10:26:44.948Z,20.23
2022-12-25T10:28:04.315Z,17.13
2022-12-25T10:29:17.577Z,18.08
2022-12-25T10:30:29.251Z,18.95
2022-12-25T10:31:42.034Z,18.60
2022-12-25T10:32:54.815Z,19.45
2022-12-25T10:34:06.939Z,20.63
2022-12-25T10:35:20.062Z,19.88
2022-12-25T10:36:31.973Z,20.70
2022-12-25T10:37:44.598Z,21.35
2022-12-25T10:38:56.206Z,21.30
2022-12-25T10:40:37.285Z,22.58
2022-12-25T10:41:51.578Z,19.08
2022-12-25T10:43:13.955Z,21.73
2022-12-25T10:44:26.084Z,18.52
2022-12-25T10:45:44.343Z,22.65
2022-12-25T10:47:00.051Z,24.23
2022-12-25T10:48:15.986Z,18.10
2022-12-25T10:49:39.851Z,18.75
2022-12-25T10:50:51.595Z,20.63
2022-12-25T10:52:04.085Z,21.45
2022-12-25T10:53:20.463Z,22.45
2022-12-25T10:54:35.973Z,21.70
2022-12-25T10:55:54.318Z,22.70
2022-12-25T10:57:08.907Z,22.88
2022-12-25T10:58:21.721Z,20.35
2022-12-25T10:59:42.595Z,19.23
2022-12-25T11:00:56.908Z,13.95
2022-12-25T11:02:24.007Z,14.52
2022-12-25T11:03:39.893Z,14.63
2022-12-25T11:04:51.856Z,15.95
2022-12-25T11:06:04.236Z,16.92
2022-12-25T11:07:18.658Z,16.88
2022-12-25T11:08:31.483Z,16.45
2022-12-25T11:09:49.476Z,15.77
2022-12-25T11:11:06.595Z,15.18
2022-12-25T11:12:20.093Z,16.35
2022-12-25T11:13:33.365Z,16.88
2022-12-25T11:14:51.903Z,14.52
2022-12-25T11:16:05.862Z,17.05
2022-12-25T11:17:25.581Z,18.80
2022-12-25T11:18:47.929Z,19.45
2022-12-25T11:20:00.889Z,19.35
2022-12-25T11:21:17.647Z,19.20
2022-12-25T11:22:29.437Z,18.83
2022-12-25T11:23:44.090Z,20.67
2022-12-25T11:24:55.498Z,19.70
2022-12-25T11:26:08.388Z,18.65
2022-12-25T11:27:23.320Z,20.85
2022-12-25T11:28:37.057Z,18.35
2022-12-25T11:29:50.590Z,19.20
2022-12-25T11:31:22.314Z,19.63
2022-12-25T11:32:43.511Z,20.75
2022-12-25T11:33:57.314Z,20.13
2022-12-25T11:35:13.204Z,22.83
2022-12-25T11:36:28.632Z,21.05
2022-12-25T11:37:48.440Z,22.25
2022-12-25T11:39:16.492Z,20.20
2022-12-25T11:40:29.720Z,19.83
2022-12-25T11:41:41.548Z,18.63
2022-12-25T11:43:04.038Z,19.73
2022-12-25T11:44:27.826Z,21.08
2022-12-25T11:45:41.617Z,19.88
2022-12-25T11:46:55.154Z,20.88
2022-12-25T11:48:13.427Z,18.73
2022-12-25T11:49:25.644Z,17.10
2022-12-25T11:50:41.994Z,15.82
2022-12-25T11:51:55.745Z,14.25
2022-12-25T11:53:28.313Z,12.43
2022-12-25T11:54:52.303Z,13.93
2022-12-25T11:56:13.201Z,14.15
2022-12-25T11:57:27.860Z,13.88
2022-12-25T11:58:41.153Z,14.80
2022-12-25T11:59:56.145Z,20.23
2022-12-25T12:01:22.638Z,15.82
2022-12-25T12:02:38.496Z,16.83
2022-12-25T12:03:50.341Z,16.05
2022-12-25T12:05:22.021Z,19.20
2022-12-25T12:07:11.835Z,18.73
2022-12-25T12:08:23.278Z,18.25
2022-12-25T12:09:56.886Z,18.52
2022-12-25T12:11:34.673Z,14.55
2022-12-25T12:12:49.158Z,15.15
2022-12-25T12:14:07.205Z,14.95
2022-12-25T12:15:23.202Z,15.10
2022-12-25T12:16:34.848Z,16.58
2022-12-25T12:17:59.210Z,17.58
2022-12-25T12:19:24.638Z,12.93
2022-12-25T12:20:36.821Z,13.48
2022-12-25T12:21:48.550Z,13.07
2022-12-25T12:23:01.554Z,13.75
2022-12-25T12:24:17.149Z,12.75
2022-12-25T12:25:29.446Z,12.60
2022-12-25T12:26:42.617Z,11.98
2022-12-25T12:28:05.652Z,12.65
2022-12-25T12:29:23.455Z,11.95
2022-12-25T12:30:35.916Z,13.18
2022-12-25T12:31:48.970Z,12.10
2022-12-25T12:33:02.352Z,13.77
2022-12-25T12:34:31.163Z,11.70
2022-12-25T12:35:42.670Z,12.77
2022-12-25T12:36:59.192Z,13.23
2022-12-25T12:38:17.412Z,14.35
2022-12-25T12:39:35.271Z,14.20
2022-12-25T12:40:54.951Z,15.07
2022-12-25T12:42:15.775Z,13.70
2022-12-25T12:43:30.637Z,13.85
2022-12-25T12:44:42.735Z,14.48
2022-12-25T12:45:55.632Z,14.85
2022-12-25T12:47:27.251Z,16.05
2022-12-25T12:48:40.772Z,16.13
2022-12-25T12:49:58.443Z,16.90
2022-12-25T12:51:12.251Z,18.90
2022-12-25T12:52:32.698Z,15.98
2022-12-25T12:53:46.111Z,18.30
2022-12-25T12:54:58.500Z,18.20
2022-12-25T12:56:11.206Z,20.45
2022-12-25T12:57:25.736Z,20.63
2022-12-25T12:58:38.326Z,17.63
2022-12-25T12:59:50.840Z,18.88
2022-12-25T13:01:08.863Z,18.73
2022-12-25T13:02:26.713Z,19.33
2022-12-25T13:03:38.314Z,19.10
2022-12-25T13:04:49.863Z,20.55
2022-12-25T13:06:04.613Z,23.20
2022-12-25T13:07:32.432Z,22.40
2022-12-25T13:08:53.136Z,20.52
2022-12-25T13:10:13.971Z,20.65
2022-12-25T13:11:30.081Z,18.00
2022-12-25T13:12:41.674Z,20.48
2022-12-25T13:13:54.254Z,17.00
2022-12-25T13:15:12.103Z,16.48
2022-12-25T13:16:28.100Z,18.27
2022-12-25T13:17:42.897Z,17.95
2022-12-25T13:18:55.259Z,17.10
2022-12-25T13:20:07.445Z,16.92
2022-12-25T13:21:22.023Z,16.95
2022-12-25T13:22:34.837Z,17.55
2022-12-25T13:23:46.284Z,20.20
2022-12-25T13:24:59.458Z,18.65
2022-12-25T13:26:12.671Z,19.67
2022-12-25T13:27:25.633Z,21.20
2022-12-25T13:28:37.599Z,20.98
2022-12-25T13:29:49.125Z,20.10
2022-12-25T13:31:07.157Z,19.55
2022-12-25T13:32:29.922Z,16.65
2022-12-25T13:33:44.945Z,15.20
2022-12-25T13:34:57.203Z,14.55
2022-12-25T13:36:12.365Z,13.23
2022-12-25T13:37:25.468Z,16.00
2022-12-25T13:38:37.291Z,13.02
2022-12-25T13:39:49.110Z,10.07
2022-12-25T13:41:19.418Z,7.88
2022-12-25T13:42:36.546Z,7.82
2022-12-25T13:43:50.651Z,7.55
2022-12-25T13:45:14.509Z,8.50
2022-12-25T13:46:27.275Z,4.88
2022-12-25T13:47:41.174Z,5.95
2022-12-25T13:48:58.570Z,6.15
2022-12-25T13:50:20.140Z,6.10
2022-12-25T13:51:31.599Z,6.38
2022-12-25T13:52:43.169Z,4.68
2022-12-25T13:54:04.665Z,4.80
2022-12-25T13:55:42.614Z,4.97
2022-12-25T13:56:55.044Z,4.35
2022-12-25T13:58:07.718Z,5.00
2022-12-25T13:59:21.826Z,5.18
2022-12-25T14:00:36.511Z,5.40
2022-12-25T14:01:48.953Z,5.88
2022-12-25T14:03:00.810Z,8.65
2022-12-25T14:04:20.877Z,6.07
2022-12-25T14:05:41.627Z,5.22
2022-12-25T14:06:54.257Z,5.85
2022-12-25T14:08:16.612Z,5.90
2022-12-25T14:09:28.254Z,8.77
2022-12-25T14:10:41.730Z,19.27
2022-12-25T14:11:53.599Z,14.27
2022-12-25T14:13:07.335Z,11.70
2022-12-25T14:14:21.342Z,11.57
2022-12-25T14:15:33.720Z,8.82
2022-12-25T14:16:48.938Z,8.18
2022-12-25T14:18:00.662Z,7.40
2022-12-25T14:19:29.269Z,5.05
2022-12-25T14:20:41.966Z,16.25
2022-12-25T14:21:55.863Z,27.98
2022-12-25T14:23:07.864Z,21.55
2022-12-25T14:24:21.875Z,13.60
2022-12-25T14:25:46.285Z,13.75
2022-12-25T14:26:59.724Z,11.75
2022-12-25T14:28:32.954Z,16.88
2022-12-25T14:29:45.636Z,15.40
2022-12-25T14:30:57.164Z,12.63
2022-12-25T14:32:14.178Z,13.88
2022-12-25T14:33:25.988Z,12.63
2022-12-25T14:34:37.605Z,13.32
2022-12-25T14:35:49.632Z,14.55
2022-12-25T14:37:02.710Z,14.85
2022-12-25T14:38:20.646Z,14.48
2022-12-25T14:39:32.753Z,14.15
2022-12-25T14:40:45.787Z,7.60
2022-12-25T14:41:57.917Z,9.23
2022-12-25T14:43:26.348Z,10.98
2022-12-25T14:44:41.454Z,9.82
2022-12-25T14:45:57.742Z,6.72
2022-12-25T14:47:14.967Z,8.35
2022-12-25T14:48:27.492Z,8.25
2022-12-25T14:49:39.404Z,9.82
2022-12-25T14:51:07.883Z,8.25
2022-12-25T14:52:21.318Z,5.43
2022-12-25T14:53:46.257Z,4.47
2022-12-25T14:55:02.263Z,4.55
2022-12-25T14:56:19.559Z,3.67
2022-12-25T14:57:35.189Z,3.30
2022-12-25T14:58:51.436Z,4.38
2022-12-25T15:00:06.783Z,6.88
2022-12-25T15:01:24.224Z,10.63
2022-12-25T15:02:40.299Z,11.68
2022-12-25T15:03:52.345Z,9.70
2022-12-25T15:05:04.176Z,8.35
2022-12-25T15:06:20.271Z,13.10
2022-12-25T15:07:32.135Z,8.55
2022-12-25T15:08:54.735Z,6.50
2022-12-25T15:10:57.550Z,5.43
2022-12-25T15:11:43.523Z,6.60
2022-12-25T15:12:55.012Z,8.07
2022-12-25T15:14:06.617Z,10.98
2022-12-25T15:15:18.114Z,6.30
2022-12-25T15:16:31.156Z,8.07
2022-12-25T15:17:43.138Z,6.45
2022-12-25T15:18:55.182Z,6.80
2022-12-25T15:20:09.022Z,6.35
2022-12-25T15:21:20.572Z,4.43
2022-12-25T15:22:54.103Z,3.85
2022-12-25T15:24:05.002Z,2.92
2022-12-25T15:25:16.612Z,3.85
2022-12-25T15:26:29.869Z,6.15
2022-12-25T15:27:42.632Z,7.22
2022-12-25T15:28:54.230Z,5.72
2022-12-25T15:30:10.033Z,6.65
2022-12-25T15:31:27.105Z,9.68
2022-12-25T15:32:38.700Z,6.80
2022-12-25T15:33:50.489Z,5.97
2022-12-25T15:35:02.095Z,8.45
2022-12-25T15:36:14.008Z,7.93
2022-12-25T15:37:25.528Z,7.22
2022-12-25T15:38:39.047Z,6.85
2022-12-25T15:39:50.702Z,7.20
2022-12-25T15:41:02.582Z,6.60
2022-12-25T15:42:19.323Z,4.93
2022-12-25T15:43:46.681Z,4.97
2022-12-25T15:44:58.656Z,12.43
2022-12-25T15:46:10.565Z,17.90
2022-12-25T15:47:23.160Z,20.05
2022-12-25T15:48:34.722Z,30.02
2022-12-25T15:49:46.429Z,28.75
2022-12-25T15:50:58.023Z,19.95
2022-12-25T15:52:14.375Z,25.80
2022-12-25T15:53:27.066Z,25.15
2022-12-25T15:54:38.916Z,42.85
2022-12-25T15:55:50.892Z,54.42
2022-12-25T15:57:04.558Z,51.80
2022-12-25T15:58:18.037Z,63.83
2022-12-25T15:59:30.275Z,62.20
2022-12-25T16:00:42.351Z,26.55
2022-12-25T16:01:55.634Z,32.22
2022-12-25T16:03:07.669Z,33.35
2022-12-25T16:04:19.542Z,22.83
2022-12-25T16:05:31.408Z,21.80
2022-12-25T16:06:42.958Z,20.40
2022-12-25T16:07:55.171Z,28.15
2022-12-25T16:09:07.305Z,22.00
2022-12-25T16:10:20.081Z,21.23
2022-12-25T16:11:31.763Z,17.75
2022-12-25T16:12:44.335Z,19.98
2022-12-25T16:13:56.322Z,18.67
2022-12-25T16:15:09.485Z,16.48
2022-12-25T16:16:22.966Z,16.85
2022-12-25T16:17:34.866Z,16.83
2022-12-25T16:18:47.525Z,14.90
2022-12-25T16:20:00.425Z,16.58
2022-12-25T16:21:14.032Z,13.82
2022-12-25T16:22:26.094Z,14.27
2022-12-25T16:23:38.323Z,12.05